sensor_id;sensor_type;location;lat;lon;timestamp;pressure;altitude;pressure_sealevel;temperature;humidity
43488;BME280;29078;41.932;25.554;2023-05-23T00:02:11;99221.31;;;17.41;64.20
43488;BME280;29078;41.932;25.554;2023-05-23T00:04:37;99208.31;;;17.45;63.61
43488;BME280;29078;41.932;25.554;2023-05-23T00:07:03;99217.47;;;17.49;63.92
43488;BME280;29078;41.932;25.554;2023-05-23T00:09:28;99215.38;;;17.51;63.54
43488;BME280;29078;41.932;25.554;2023-05-23T00:11:53;99215.84;;;17.48;63.74
43488;BME280;29078;41.932;25.554;2023-05-23T00:14:19;99218.28;;;17.50;63.97
43488;BME280;29078;41.932;25.554;2023-05-23T00:16:45;99222.13;;;17.54;63.14
43488;BME280;29078;41.932;25.554;2023-05-23T00:19:11;99221.09;;;17.55;63.35
43488;BME280;29078;41.932;25.554;2023-05-23T00:21:38;99212.84;;;17.56;63.33
43488;BME280;29078;41.932;25.554;2023-05-23T00:24:04;99213.31;;;17.53;63.98
43488;BME280;29078;41.932;25.554;2023-05-23T00:26:29;99218.19;;;17.56;63.79
43488;BME280;29078;41.932;25.554;2023-05-23T00:28:55;99213.44;;;17.58;63.25
43488;BME280;29078;41.932;25.554;2023-05-23T00:31:21;99210.88;;;17.63;63.24
43488;BME280;29078;41.932;25.554;2023-05-23T00:33:47;99205.09;;;17.66;63.31
43488;BME280;29078;41.932;25.554;2023-05-23T00:36:12;99200.91;;;17.70;61.97
43488;BME280;29078;41.932;25.554;2023-05-23T00:38:37;99209.97;;;17.69;62.66
43488;BME280;29078;41.932;25.554;2023-05-23T00:41:03;99209.16;;;17.69;63.66
43488;BME280;29078;41.932;25.554;2023-05-23T00:43:29;99223.09;;;17.71;62.69
43488;BME280;29078;41.932;25.554;2023-05-23T00:45:55;99208.13;;;17.70;62.45
43488;BME280;29078;41.932;25.554;2023-05-23T00:48:20;99209.16;;;17.69;62.92
43488;BME280;29078;41.932;25.554;2023-05-23T00:50:46;99211.25;;;17.67;63.71
43488;BME280;29078;41.932;25.554;2023-05-23T00:53:11;99208.19;;;17.63;62.55
43488;BME280;29078;41.932;25.554;2023-05-23T00:55:37;99212.72;;;17.63;62.74
43488;BME280;29078;41.932;25.554;2023-05-23T00:58:03;99206.81;;;17.61;62.41
43488;BME280;29078;41.932;25.554;2023-05-23T01:00:28;99207.28;;;17.58;62.01
43488;BME280;29078;41.932;25.554;2023-05-23T01:02:54;99199.72;;;17.55;62.09
43488;BME280;29078;41.932;25.554;2023-05-23T01:05:19;99194.63;;;17.53;62.40
43488;BME280;29078;41.932;25.554;2023-05-23T01:07:47;99189.75;;;17.50;62.45
43488;BME280;29078;41.932;25.554;2023-05-23T01:10:12;99193.22;;;17.51;62.45
43488;BME280;29078;41.932;25.554;2023-05-23T01:15:17;99191.13;;;17.41;62.96
43488;BME280;29078;41.932;25.554;2023-05-23T01:17:45;99184.28;;;17.45;62.77
43488;BME280;29078;41.932;25.554;2023-05-23T01:23:15;99188.59;;;17.46;62.73
43488;BME280;29078;41.932;25.554;2023-05-23T01:28:17;99183.72;;;17.43;62.84
43488;BME280;29078;41.932;25.554;2023-05-23T01:30:44;99186.59;;;17.41;62.60
43488;BME280;29078;41.932;25.554;2023-05-23T01:33:10;99183.72;;;17.43;62.34
43488;BME280;29078;41.932;25.554;2023-05-23T01:35:38;99181.84;;;17.43;62.35
43488;BME280;29078;41.932;25.554;2023-05-23T01:38:03;99182.31;;;17.40;62.47
43488;BME280;29078;41.932;25.554;2023-05-23T01:40:29;99177.66;;;17.36;62.50
43488;BME280;29078;41.932;25.554;2023-05-23T01:42:54;99182.19;;;17.35;62.69
43488;BME280;29078;41.932;25.554;2023-05-23T01:45:21;99184.28;;;17.33;62.41
43488;BME280;29078;41.932;25.554;2023-05-23T01:47:48;99180.69;;;17.28;63.22
43488;BME280;29078;41.932;25.554;2023-05-23T01:50:14;99180.91;;;17.26;62.81
43488;BME280;29078;41.932;25.554;2023-05-23T01:52:40;99184.84;;;17.24;62.62
43488;BME280;29078;41.932;25.554;2023-05-23T01:55:06;99190.41;;;17.22;62.90
43488;BME280;29078;41.932;25.554;2023-05-23T01:57:34;99188.91;;;17.14;62.69
43488;BME280;29078;41.932;25.554;2023-05-23T02:00:00;99188.06;;;17.14;62.71
43488;BME280;29078;41.932;25.554;2023-05-23T02:02:25;99196.09;;;17.14;62.94
43488;BME280;29078;41.932;25.554;2023-05-23T02:04:50;99197.78;;;17.08;62.80
43488;BME280;29078;41.932;25.554;2023-05-23T02:07:18;99194.53;;;17.06;62.97
43488;BME280;29078;41.932;25.554;2023-05-23T02:09:47;99195.34;;;17.07;63.05
43488;BME280;29078;41.932;25.554;2023-05-23T02:12:12;99200.44;;;17.08;63.20
43488;BME280;29078;41.932;25.554;2023-05-23T02:14:37;99194.53;;;17.06;63.59
43488;BME280;29078;41.932;25.554;2023-05-23T02:17:03;99201.50;;;17.07;63.33
43488;BME280;29078;41.932;25.554;2023-05-23T02:19:29;99204.63;;;17.04;63.16
43488;BME280;29078;41.932;25.554;2023-05-23T02:21:54;99208.31;;;17.03;63.30
43488;BME280;29078;41.932;25.554;2023-05-23T02:24:19;99200.78;;;17.00;62.44
43488;BME280;29078;41.932;25.554;2023-05-23T02:26:44;99201.69;;;16.94;63.55
43488;BME280;29078;41.932;25.554;2023-05-23T02:29:10;99197.38;;;16.93;62.79
43488;BME280;29078;41.932;25.554;2023-05-23T02:31:35;99205.03;;;16.90;63.39
43488;BME280;29078;41.932;25.554;2023-05-23T02:34:00;99202.94;;;16.92;62.24
43488;BME280;29078;41.932;25.554;2023-05-23T02:36:26;99197.25;;;16.88;63.44
43488;BME280;29078;41.932;25.554;2023-05-23T02:38:51;99204.81;;;16.91;62.95
43488;BME280;29078;41.932;25.554;2023-05-23T02:41:16;99198.44;;;16.92;63.37
43488;BME280;29078;41.932;25.554;2023-05-23T02:43:43;99201.22;;;16.97;62.22
43488;BME280;29078;41.932;25.554;2023-05-23T02:46:09;99203.31;;;16.95;62.62
43488;BME280;29078;41.932;25.554;2023-05-23T02:48:34;99201.09;;;16.92;62.78
43488;BME280;29078;41.932;25.554;2023-05-23T02:50:59;99208.06;;;16.93;62.52
43488;BME280;29078;41.932;25.554;2023-05-23T02:53:25;99203.75;;;16.92;62.37
43488;BME280;29078;41.932;25.554;2023-05-23T02:55:50;99212.69;;;16.86;62.50
43488;BME280;29078;41.932;25.554;2023-05-23T02:58:16;99203.88;;;16.86;62.66
43488;BME280;29078;41.932;25.554;2023-05-23T03:00:41;99206.06;;;16.89;62.79
43488;BME280;29078;41.932;25.554;2023-05-23T03:03:07;99206.06;;;16.89;62.47
43488;BME280;29078;41.932;25.554;2023-05-23T03:05:33;99203.72;;;16.80;62.49
43488;BME280;29078;41.932;25.554;2023-05-23T03:07:58;99213.00;;;16.78;63.18
43488;BME280;29078;41.932;25.554;2023-05-23T03:10:24;99208.84;;;16.82;62.04
43488;BME280;29078;41.932;25.554;2023-05-23T03:12:49;99214.38;;;16.80;62.65
43488;BME280;29078;41.932;25.554;2023-05-23T03:15:14;99212.31;;;16.82;62.48
43488;BME280;29078;41.932;25.554;2023-05-23T03:17:40;99204.31;;;16.82;62.56
43488;BME280;29078;41.932;25.554;2023-05-23T03:20:05;99210.59;;;16.88;61.91
43488;BME280;29078;41.932;25.554;2023-05-23T03:22:33;99206.31;;;16.87;62.36
43488;BME280;29078;41.932;25.554;2023-05-23T03:24:59;99209.56;;;16.89;62.81
43488;BME280;29078;41.932;25.554;2023-05-23T03:27:24;99209.56;;;16.89;62.68
43488;BME280;29078;41.932;25.554;2023-05-23T03:29:50;99209.06;;;16.80;63.43
43488;BME280;29078;41.932;25.554;2023-05-23T03:32:15;99213.59;;;16.80;62.80
43488;BME280;29078;41.932;25.554;2023-05-23T03:34:40;99216.25;;;16.80;63.06
43488;BME280;29078;41.932;25.554;2023-05-23T03:37:05;99211.50;;;16.82;62.87
43488;BME280;29078;41.932;25.554;2023-05-23T03:39:31;99224.03;;;16.81;62.56
43488;BME280;29078;41.932;25.554;2023-05-23T03:41:56;99213.13;;;16.83;63.07
43488;BME280;29078;41.932;25.554;2023-05-23T03:44:21;99219.63;;;16.87;62.86
43488;BME280;29078;41.932;25.554;2023-05-23T03:46:46;99216.28;;;16.92;62.26
43488;BME280;29078;41.932;25.554;2023-05-23T03:49:12;99228.94;;;16.96;62.26
43488;BME280;29078;41.932;25.554;2023-05-23T03:51:37;99220.34;;;16.94;62.30
43488;BME280;29078;41.932;25.554;2023-05-23T03:54:02;99216.88;;;16.94;62.60
43488;BME280;29078;41.932;25.554;2023-05-23T03:56:27;99221.16;;;16.95;62.45
43488;BME280;29078;41.932;25.554;2023-05-23T03:58:53;99218.03;;;16.98;62.21
43488;BME280;29078;41.932;25.554;2023-05-23T04:01:18;99231.16;;;16.99;61.87
43488;BME280;29078;41.932;25.554;2023-05-23T04:03:43;99228.50;;;16.99;62.24
43488;BME280;29078;41.932;25.554;2023-05-23T04:06:08;99223.38;;;16.98;62.40
43488;BME280;29078;41.932;25.554;2023-05-23T04:08:34;99225.81;;;16.99;61.65
43488;BME280;29078;41.932;25.554;2023-05-23T04:10:59;99228.13;;;16.96;61.88
43488;BME280;29078;41.932;25.554;2023-05-23T04:13:25;99227.41;;;16.89;62.02
43488;BME280;29078;41.932;25.554;2023-05-23T04:15:51;99224.50;;;16.90;62.03
43488;BME280;29078;41.932;25.554;2023-05-23T04:18:16;99231.03;;;16.94;61.41
43488;BME280;29078;41.932;25.554;2023-05-23T04:20:42;99219.53;;;16.94;61.87
43488;BME280;29078;41.932;25.554;2023-05-23T04:23:07;99234.03;;;16.98;61.84
43488;BME280;29078;41.932;25.554;2023-05-23T04:25:32;99234.63;;;17.00;61.77
43488;BME280;29078;41.932;25.554;2023-05-23T04:27:58;99229.06;;;17.01;61.41
43488;BME280;29078;41.932;25.554;2023-05-23T04:30:23;99230.69;;;17.02;61.32
43488;BME280;29078;41.932;25.554;2023-05-23T04:32:49;99235.13;;;17.08;61.38
43488;BME280;29078;41.932;25.554;2023-05-23T04:35:14;99236.69;;;17.16;61.35
43488;BME280;29078;41.932;25.554;2023-05-23T04:37:39;99232.97;;;17.17;61.56
43488;BME280;29078;41.932;25.554;2023-05-23T04:40:06;99248.53;;;17.20;61.14
43488;BME280;29078;41.932;25.554;2023-05-23T04:42:32;99244.34;;;17.24;61.00
43488;BME280;29078;41.932;25.554;2023-05-23T04:44:57;99249.00;;;17.29;61.36
43488;BME280;29078;41.932;25.554;2023-05-23T04:47:22;99242.31;;;17.38;60.86
43488;BME280;29078;41.932;25.554;2023-05-23T04:49:49;99252.28;;;17.42;60.61
43488;BME280;29078;41.932;25.554;2023-05-23T04:52:14;99251.47;;;17.42;60.89
43488;BME280;29078;41.932;25.554;2023-05-23T04:54:43;99253.09;;;17.43;60.71
43488;BME280;29078;41.932;25.554;2023-05-23T04:57:09;99246.72;;;17.44;60.53
43488;BME280;29078;41.932;25.554;2023-05-23T04:59:34;99250.44;;;17.43;60.76
43488;BME280;29078;41.932;25.554;2023-05-23T05:01:59;99255.31;;;17.46;60.58
43488;BME280;29078;41.932;25.554;2023-05-23T05:04:25;99248.81;;;17.42;60.91
43488;BME280;29078;41.932;25.554;2023-05-23T05:06:50;99255.91;;;17.48;61.06
43488;BME280;29078;41.932;25.554;2023-05-23T05:09:16;99250.44;;;17.55;60.37
43488;BME280;29078;41.932;25.554;2023-05-23T05:11:42;99254.88;;;17.61;61.10
43488;BME280;29078;41.932;25.554;2023-05-23T05:14:07;99255.00;;;17.66;61.33
43488;BME280;29078;41.932;25.554;2023-05-23T05:16:32;99254.31;;;17.70;61.17
43488;BME280;29078;41.932;25.554;2023-05-23T05:18:57;99263.25;;;17.76;61.10
43488;BME280;29078;41.932;25.554;2023-05-23T05:21:23;99260.47;;;17.83;60.83
43488;BME280;29078;41.932;25.554;2023-05-23T05:23:48;99258.28;;;17.79;61.04
43488;BME280;29078;41.932;25.554;2023-05-23T05:26:13;99263.53;;;17.86;60.80
43488;BME280;29078;41.932;25.554;2023-05-23T05:28:38;99272.25;;;17.93;61.00
43488;BME280;29078;41.932;25.554;2023-05-23T05:31:05;99270.50;;;17.99;60.65
43488;BME280;29078;41.932;25.554;2023-05-23T05:33:30;99278.41;;;18.05;60.63
43488;BME280;29078;41.932;25.554;2023-05-23T05:36:00;99278.50;;;18.10;60.41
43488;BME280;29078;41.932;25.554;2023-05-23T05:38:26;99276.75;;;18.16;60.18
43488;BME280;29078;41.932;25.554;2023-05-23T05:40:51;99281.28;;;18.16;60.53
43488;BME280;29078;41.932;25.554;2023-05-23T05:43:16;99283.03;;;18.22;59.92
43488;BME280;29078;41.932;25.554;2023-05-23T05:45:42;99279.91;;;18.13;60.20
43488;BME280;29078;41.932;25.554;2023-05-23T05:48:07;99281.41;;;18.09;61.25
43488;BME280;29078;41.932;25.554;2023-05-23T05:50:32;99286.19;;;18.07;60.93
43488;BME280;29078;41.932;25.554;2023-05-23T05:52:57;99283.50;;;18.07;60.14
43488;BME280;29078;41.932;25.554;2023-05-23T05:55:23;99290.72;;;18.06;60.54
43488;BME280;29078;41.932;25.554;2023-05-23T05:57:48;99291.88;;;18.10;61.28
43488;BME280;29078;41.932;25.554;2023-05-23T06:00:13;99287.91;;;18.13;60.39
43488;BME280;29078;41.932;25.554;2023-05-23T06:02:42;99292.22;;;18.14;60.58
43488;BME280;29078;41.932;25.554;2023-05-23T06:05:08;99285.34;;;18.18;61.19
43488;BME280;29078;41.932;25.554;2023-05-23T06:07:36;99290.34;;;18.26;60.50
43488;BME280;29078;41.932;25.554;2023-05-23T06:10:01;99290.22;;;18.33;59.91
43488;BME280;29078;41.932;25.554;2023-05-23T06:12:27;99293.34;;;18.41;59.86
43488;BME280;29078;41.932;25.554;2023-05-23T06:14:52;99295.56;;;18.45;60.15
43488;BME280;29078;41.932;25.554;2023-05-23T06:17:18;99286.81;;;18.49;59.24
43488;BME280;29078;41.932;25.554;2023-05-23T06:19:43;99291.47;;;18.54;59.49
43488;BME280;29078;41.932;25.554;2023-05-23T06:22:08;99288.94;;;18.59;59.53
43488;BME280;29078;41.932;25.554;2023-05-23T06:24:33;99290.09;;;18.63;60.19
43488;BME280;29078;41.932;25.554;2023-05-23T06:26:59;99291.84;;;18.69;59.34
43488;BME280;29078;41.932;25.554;2023-05-23T06:29:24;99293.56;;;18.75;59.49
43488;BME280;29078;41.932;25.554;2023-05-23T06:31:49;99281.91;;;18.81;59.21
43488;BME280;29078;41.932;25.554;2023-05-23T06:34:15;99282.00;;;18.86;58.80
43488;BME280;29078;41.932;25.554;2023-05-23T06:36:40;99274.22;;;18.85;58.83
43488;BME280;29078;41.932;25.554;2023-05-23T06:39:07;99277.56;;;18.92;58.47
43488;BME280;29078;41.932;25.554;2023-05-23T06:41:35;99273.69;;;18.99;58.43
43488;BME280;29078;41.932;25.554;2023-05-23T06:44:00;99275.50;;;19.11;58.22
43488;BME280;29078;41.932;25.554;2023-05-23T06:46:25;99283.41;;;19.17;57.92
43488;BME280;29078;41.932;25.554;2023-05-23T06:48:50;99278.94;;;19.23;57.89
43488;BME280;29078;41.932;25.554;2023-05-23T06:51:16;99281.94;;;19.26;57.80
43488;BME280;29078;41.932;25.554;2023-05-23T06:53:41;99273.44;;;19.29;57.41
43488;BME280;29078;41.932;25.554;2023-05-23T06:56:07;99279.97;;;19.33;57.15
43488;BME280;29078;41.932;25.554;2023-05-23T06:58:32;99270.72;;;19.41;57.24
43488;BME280;29078;41.932;25.554;2023-05-23T07:00:57;99264.88;;;19.44;57.62
43488;BME280;29078;41.932;25.554;2023-05-23T07:03:22;99266.03;;;19.48;57.39
43488;BME280;29078;41.932;25.554;2023-05-23T07:05:48;99262.16;;;19.56;57.03
43488;BME280;29078;41.932;25.554;2023-05-23T07:08:13;99265.50;;;19.63;56.85
43488;BME280;29078;41.932;25.554;2023-05-23T07:10:38;99265.72;;;19.61;56.88
43488;BME280;29078;41.932;25.554;2023-05-23T07:13:05;99262.16;;;19.56;56.86
43488;BME280;29078;41.932;25.554;2023-05-23T07:15:30;99265.09;;;19.54;57.16
43488;BME280;29078;41.932;25.554;2023-05-23T07:17:55;99272.22;;;19.65;57.11
43488;BME280;29078;41.932;25.554;2023-05-23T07:20:21;99266.78;;;19.77;56.68
43488;BME280;29078;41.932;25.554;2023-05-23T07:22:46;99267.75;;;19.88;56.73
43488;BME280;29078;41.932;25.554;2023-05-23T07:25:11;99267.66;;;19.99;56.43
43488;BME280;29078;41.932;25.554;2023-05-23T07:27:37;99271.47;;;20.04;56.10
43488;BME280;29078;41.932;25.554;2023-05-23T07:30:02;99271.56;;;20.09;56.13
43488;BME280;29078;41.932;25.554;2023-05-23T07:32:28;99271.16;;;20.17;56.07
43488;BME280;29078;41.932;25.554;2023-05-23T07:34:53;99273.09;;;20.21;55.66
43488;BME280;29078;41.932;25.554;2023-05-23T07:37:19;99272.34;;;20.26;55.28
43488;BME280;29078;41.932;25.554;2023-05-23T07:39:44;99273.47;;;20.30;55.32
43488;BME280;29078;41.932;25.554;2023-05-23T07:42:09;99270.94;;;20.40;55.49
43488;BME280;29078;41.932;25.554;2023-05-23T07:44:35;99270.72;;;20.42;55.50
43488;BME280;29078;41.932;25.554;2023-05-23T07:47:00;99267.78;;;20.43;55.39
43488;BME280;29078;41.932;25.554;2023-05-23T07:49:25;99244.84;;;20.36;55.26
43488;BME280;29078;41.932;25.554;2023-05-23T07:51:51;99273.56;;;20.57;55.35
43488;BME280;29078;41.932;25.554;2023-05-23T07:54:16;99272.94;;;20.50;55.75
43488;BME280;29078;41.932;25.554;2023-05-23T07:56:41;99279.88;;;20.46;55.76
43488;BME280;29078;41.932;25.554;2023-05-23T07:59:07;99281.91;;;20.39;55.88
43488;BME280;29078;41.932;25.554;2023-05-23T08:01:32;99279.00;;;20.40;55.90
43488;BME280;29078;41.932;25.554;2023-05-23T08:03:58;99278.75;;;20.42;55.78
43488;BME280;29078;41.932;25.554;2023-05-23T08:06:23;99278.81;;;20.47;55.77
43488;BME280;29078;41.932;25.554;2023-05-23T08:08:49;99276.69;;;20.49;55.84
43488;BME280;29078;41.932;25.554;2023-05-23T08:11:15;99270.91;;;20.57;55.67
43488;BME280;29078;41.932;25.554;2023-05-23T08:13:40;99274.69;;;20.61;55.47
43488;BME280;29078;41.932;25.554;2023-05-23T08:16:05;99270.75;;;20.69;55.25
43488;BME280;29078;41.932;25.554;2023-05-23T08:18:30;99276.50;;;20.77;55.02
43488;BME280;29078;41.932;25.554;2023-05-23T08:20:56;99274.47;;;20.84;54.74
43488;BME280;29078;41.932;25.554;2023-05-23T08:23:21;99273.56;;;21.01;54.64
43488;BME280;29078;41.932;25.554;2023-05-23T08:25:46;99269.38;;;21.10;54.27
43488;BME280;29078;41.932;25.554;2023-05-23T08:28:11;99264.97;;;21.25;53.85
43488;BME280;29078;41.932;25.554;2023-05-23T08:30:37;99263.50;;;21.40;53.41
43488;BME280;29078;41.932;25.554;2023-05-23T08:33:02;99269.50;;;21.52;53.31
43488;BME280;29078;41.932;25.554;2023-05-23T08:35:28;99261.97;;;21.49;53.06
43488;BME280;29078;41.932;25.554;2023-05-23T08:37:59;99249.34;;;21.49;53.06
43488;BME280;29078;41.932;25.554;2023-05-23T08:40:25;99258.03;;;21.56;53.27
43488;BME280;29078;41.932;25.554;2023-05-23T08:42:51;99262.72;;;21.71;52.82
43488;BME280;29078;41.932;25.554;2023-05-23T08:45:16;99261.50;;;21.89;52.76
43488;BME280;29078;41.932;25.554;2023-05-23T08:47:42;99254.63;;;22.03;52.30
43488;BME280;29078;41.932;25.554;2023-05-23T08:50:17;99263.31;;;22.20;50.89
43488;BME280;29078;41.932;25.554;2023-05-23T08:55:09;99264.78;;;22.38;51.56
43488;BME280;29078;41.932;25.554;2023-05-23T08:57:35;99264.00;;;22.43;50.80
43488;BME280;29078;41.932;25.554;2023-05-23T09:00:02;99264.03;;;22.48;50.69
43488;BME280;29078;41.932;25.554;2023-05-23T09:02:34;99260.22;;;22.39;50.00
43488;BME280;29078;41.932;25.554;2023-05-23T09:04:59;99260.94;;;22.29;50.33
43488;BME280;29078;41.932;25.554;2023-05-23T09:07:25;99263.88;;;22.23;51.34
43488;BME280;29078;41.932;25.554;2023-05-23T09:09:51;99264.22;;;22.31;50.95
43488;BME280;29078;41.932;25.554;2023-05-23T09:12:16;99255.56;;;22.29;51.79
43488;BME280;29078;41.932;25.554;2023-05-23T09:14:42;99255.28;;;22.26;51.23
43488;BME280;29078;41.932;25.554;2023-05-23T09:17:08;99253.41;;;22.26;51.59
43488;BME280;29078;41.932;25.554;2023-05-23T09:19:34;99247.75;;;22.28;51.55
43488;BME280;29078;41.932;25.554;2023-05-23T09:22:04;99247.47;;;22.24;50.84
43488;BME280;29078;41.932;25.554;2023-05-23T09:24:33;99253.38;;;22.21;49.90
43488;BME280;29078;41.932;25.554;2023-05-23T09:26:59;99257.94;;;22.20;51.70
43488;BME280;29078;41.932;25.554;2023-05-23T09:29:25;99245.03;;;22.17;51.52
43488;BME280;29078;41.932;25.554;2023-05-23T09:31:51;99242.47;;;22.43;51.18
43488;BME280;29078;41.932;25.554;2023-05-23T09:34:17;99238.91;;;22.95;50.34
43488;BME280;29078;41.932;25.554;2023-05-23T09:36:42;99243.56;;;23.35;49.38
43488;BME280;29078;41.932;25.554;2023-05-23T09:39:09;99241.41;;;23.47;47.02
43488;BME280;29078;41.932;25.554;2023-05-23T09:41:35;99240.59;;;23.46;47.96
43488;BME280;29078;41.932;25.554;2023-05-23T09:44:07;99250.84;;;23.39;48.69
43488;BME280;29078;41.932;25.554;2023-05-23T09:46:34;99248.13;;;23.29;47.81
43488;BME280;29078;41.932;25.554;2023-05-23T09:48:59;99250.03;;;23.24;48.43
43488;BME280;29078;41.932;25.554;2023-05-23T09:51:25;99251.91;;;23.13;46.41
43488;BME280;29078;41.932;25.554;2023-05-23T09:53:50;99238.97;;;23.05;46.60
43488;BME280;29078;41.932;25.554;2023-05-23T09:56:16;99239.22;;;23.08;47.11
43488;BME280;29078;41.932;25.554;2023-05-23T09:58:48;99234.38;;;23.10;47.49
43488;BME280;29078;41.932;25.554;2023-05-23T10:01:14;99238.19;;;23.35;47.77
43488;BME280;29078;41.932;25.554;2023-05-23T10:03:49;99245.44;;;23.39;47.07
43488;BME280;29078;41.932;25.554;2023-05-23T10:06:33;99241.41;;;23.42;46.92
43488;BME280;29078;41.932;25.554;2023-05-23T10:09:02;99239.53;;;23.32;47.29
43488;BME280;29078;41.932;25.554;2023-05-23T10:14:00;99244.09;;;23.37;47.04
43488;BME280;29078;41.932;25.554;2023-05-23T10:16:27;99247.59;;;23.37;47.82
43488;BME280;29078;41.932;25.554;2023-05-23T10:18:56;99241.41;;;23.32;47.33
43488;BME280;29078;41.932;25.554;2023-05-23T10:21:28;99241.94;;;23.34;48.04
43488;BME280;29078;41.932;25.554;2023-05-23T10:23:58;99244.09;;;23.37;48.20
43488;BME280;29078;41.932;25.554;2023-05-23T10:26:24;99234.94;;;23.38;47.18
43488;BME280;29078;41.932;25.554;2023-05-23T10:28:50;99233.88;;;23.39;47.55
43488;BME280;29078;41.932;25.554;2023-05-23T10:31:16;99228.75;;;23.42;48.32
43488;BME280;29078;41.932;25.554;2023-05-23T10:33:43;99229.81;;;23.41;48.12
43488;BME280;29078;41.932;25.554;2023-05-23T10:36:14;99235.47;;;23.45;48.20
43488;BME280;29078;41.932;25.554;2023-05-23T10:38:57;99241.69;;;23.40;47.54
43488;BME280;29078;41.932;25.554;2023-05-23T10:41:30;99238.44;;;23.33;47.50
43488;BME280;29078;41.932;25.554;2023-05-23T10:44:18;99237.91;;;23.36;47.86
43488;BME280;29078;41.932;25.554;2023-05-23T10:46:53;99223.34;;;23.37;47.79
43488;BME280;29078;41.932;25.554;2023-05-23T10:49:20;99233.59;;;23.35;47.35
43488;BME280;29078;41.932;25.554;2023-05-23T10:51:48;99241.69;;;23.40;47.34
43488;BME280;29078;41.932;25.554;2023-05-23T10:54:15;99227.94;;;23.42;45.17
43488;BME280;29078;41.932;25.554;2023-05-23T10:56:42;99227.94;;;23.42;46.66
43488;BME280;29078;41.932;25.554;2023-05-23T10:59:08;99224.44;;;23.46;47.08
43488;BME280;29078;41.932;25.554;2023-05-23T11:01:43;99230.91;;;23.51;47.18
43488;BME280;29078;41.932;25.554;2023-05-23T11:04:08;99233.06;;;23.54;46.80
43488;BME280;29078;41.932;25.554;2023-05-23T11:06:42;99226.63;;;23.60;47.20
43488;BME280;29078;41.932;25.554;2023-05-23T11:09:09;99222.56;;;23.67;47.65
43488;BME280;29078;41.932;25.554;2023-05-23T11:14:19;99222.56;;;23.88;46.20
43488;BME280;29078;41.932;25.554;2023-05-23T11:16:44;99222.22;;;24.15;45.62
43488;BME280;29078;41.932;25.554;2023-05-23T11:22:05;99215.56;;;24.71;45.05
43488;BME280;29078;41.932;25.554;2023-05-23T11:24:48;99217.69;;;24.75;45.52
43488;BME280;29078;41.932;25.554;2023-05-23T11:27:15;99218.19;;;24.82;44.36
43488;BME280;29078;41.932;25.554;2023-05-23T11:29:40;99230.19;;;25.10;44.93
43488;BME280;29078;41.932;25.554;2023-05-23T11:32:09;99225.31;;;25.51;43.10
43488;BME280;29078;41.932;25.554;2023-05-23T11:34:34;99216.28;;;25.65;43.12
43488;BME280;29078;41.932;25.554;2023-05-23T11:37:01;99219.00;;;25.65;42.50
43488;BME280;29078;41.932;25.554;2023-05-23T11:39:27;99221.47;;;25.57;43.42
43488;BME280;29078;41.932;25.554;2023-05-23T11:42:02;99220.63;;;25.61;42.58
43488;BME280;29078;41.932;25.554;2023-05-23T11:44:27;99224.16;;;25.91;41.92
43488;BME280;29078;41.932;25.554;2023-05-23T11:47:00;99229.13;;;26.08;41.24
43488;BME280;29078;41.932;25.554;2023-05-23T11:49:29;99225.97;;;26.24;42.25
43488;BME280;29078;41.932;25.554;2023-05-23T11:51:54;99220.84;;;26.23;42.75
43488;BME280;29078;41.932;25.554;2023-05-23T11:54:26;99225.16;;;26.24;41.23
43488;BME280;29078;41.932;25.554;2023-05-23T11:56:52;99226.03;;;26.43;40.91
43488;BME280;29078;41.932;25.554;2023-05-23T11:59:17;99219.47;;;26.49;40.03
43488;BME280;29078;41.932;25.554;2023-05-23T12:01:42;99218.34;;;26.93;39.67
43488;BME280;29078;41.932;25.554;2023-05-23T12:04:08;99214.25;;;27.33;39.51
43488;BME280;29078;41.932;25.554;2023-05-23T12:06:35;99216.25;;;27.60;38.01
43488;BME280;29078;41.932;25.554;2023-05-23T12:09:02;99209.47;;;27.76;37.63
43488;BME280;29078;41.932;25.554;2023-05-23T12:11:30;99214.03;;;27.95;36.18
43488;BME280;29078;41.932;25.554;2023-05-23T12:13:55;99212.06;;;28.28;36.48
43488;BME280;29078;41.932;25.554;2023-05-23T12:16:20;99202.38;;;28.63;36.02
43488;BME280;29078;41.932;25.554;2023-05-23T12:18:45;99201.84;;;28.74;38.09
43488;BME280;29078;41.932;25.554;2023-05-23T12:21:11;99205.53;;;28.92;35.00
43488;BME280;29078;41.932;25.554;2023-05-23T12:23:36;99199.13;;;28.88;38.26
43488;BME280;29078;41.932;25.554;2023-05-23T12:26:04;99200.22;;;28.73;34.51
43488;BME280;29078;41.932;25.554;2023-05-23T12:28:34;99199.13;;;28.88;37.30
43488;BME280;29078;41.932;25.554;2023-05-23T12:31:10;99190.66;;;28.90;34.48
43488;BME280;29078;41.932;25.554;2023-05-23T12:33:39;99181.94;;;28.65;37.21
43488;BME280;29078;41.932;25.554;2023-05-23T12:36:05;99179.16;;;28.43;37.35
43488;BME280;29078;41.932;25.554;2023-05-23T12:38:33;99181.59;;;28.44;36.98
43488;BME280;29078;41.932;25.554;2023-05-23T12:41:11;99179.72;;;28.67;34.46
43488;BME280;29078;41.932;25.554;2023-05-23T12:43:40;99167.50;;;28.92;34.82
43488;BME280;29078;41.932;25.554;2023-05-23T12:46:06;99170.72;;;28.94;35.29
43488;BME280;29078;41.932;25.554;2023-05-23T12:48:31;99168.94;;;29.12;33.72
43488;BME280;29078;41.932;25.554;2023-05-23T12:50:57;99169.63;;;29.18;33.95
43488;BME280;29078;41.932;25.554;2023-05-23T12:53:23;99163.81;;;29.33;32.69
43488;BME280;29078;41.932;25.554;2023-05-23T12:55:48;99176.72;;;29.50;34.62
43488;BME280;29078;41.932;25.554;2023-05-23T12:58:13;99172.59;;;29.52;34.76
43488;BME280;29078;41.932;25.554;2023-05-23T13:00:38;99167.75;;;29.49;33.57
43488;BME280;29078;41.932;25.554;2023-05-23T13:03:04;99103.59;;;28.81;33.25
43488;BME280;29078;41.932;25.554;2023-05-23T13:05:30;99170.56;;;29.13;34.07